LEST

Santiago de Compostela Airport

Santiago de Compostela, Spain
TAF LEST 231700Z 2318/2418 03009KT CAVOK TX24/2414Z TN10/2406Z PROB40 TEMPO 2318/2406 3000 BR BKN005
Issued Valid From Valid To
Apr-23 @ 17:00 UTC
(6 hours ago)
Apr-23 @ 18:00 UTC
(5 hours ago)
Apr-24 @ 18:00 UTC
(in 19 hours)
Apr-23 @ 18:00 to Apr-24 @ 18:00
TAF LEST 231700Z 2318/2418 03009KT CAVOK TX24/2414Z TN10/2406Z
Wind Visibility Clouds
30° at 9 knots 10,000+ meters
  • No significant clouds
Temporary  (Probability 40%) Apr-23 @ 18:00 to Apr-24 @ 06:00
PROB40 TEMPO 2318/2406 3000 BR BKN005
Visibility Clouds Conditions
2,993 meters
  • Broken at 500' AGL
  • Mist
TAF LEST 231700Z 2318/2418 03009KT CAVOK TX24/2414Z TN10/2406Z PROB40 TEMPO 2318/2406 3000 BR BKN005
Issued Apr-23 @ 17:00 UTC
(6 hours ago)
Valid From Apr-23 @ 18:00 UTC
(5 hours ago)
Valid To Apr-24 @ 18:00 UTC
(in 19 hours)
Apr-23 @ 18:00 - Apr-24 @ 18:00
Wind Visibility
30° at 9 knots 10,000+ meters
Clouds
  • No significant clouds
Probability 40% Temporary Apr-23 @ 18:00 - Apr-24 @ 06:00
Clouds
  • Broken at 500' AGL
Conditions
  • Mist